createdAt,value
2022-11-16T00:01:01.853Z,10.64
2022-11-16T00:03:32.450Z,10.64
2022-11-16T00:06:03.047Z,10.61
2022-11-16T00:08:33.140Z,10.59
2022-11-16T00:11:07.406Z,10.59
2022-11-16T00:13:36.346Z,10.56
2022-11-16T00:16:06.547Z,10.60
2022-11-16T00:18:36.460Z,10.56
2022-11-16T00:21:06.656Z,10.48
2022-11-16T00:23:38.523Z,10.42
2022-11-16T00:26:08.118Z,10.38
2022-11-16T00:28:36.915Z,10.39
2022-11-16T00:31:08.479Z,10.32
2022-11-16T00:33:38.437Z,10.29
2022-11-16T00:36:09.745Z,10.25
2022-11-16T00:38:38.597Z,10.25
2022-11-16T00:41:07.494Z,10.25
2022-11-16T00:43:36.612Z,10.22
2022-11-16T00:46:05.871Z,10.28
2022-11-16T00:48:34.707Z,10.31
2022-11-16T00:51:04.919Z,10.31
2022-11-16T00:53:34.173Z,10.33
2022-11-16T00:56:02.625Z,10.32
2022-11-16T00:58:33.844Z,10.31
2022-11-16T01:01:08.922Z,10.35
2022-11-16T01:03:37.982Z,10.35
2022-11-16T01:06:10.915Z,10.35
2022-11-16T01:08:41.284Z,10.35
2022-11-16T01:11:29.027Z,10.39
2022-11-16T01:14:03.323Z,10.38
2022-11-16T01:16:32.419Z,10.35
2022-11-16T01:19:01.222Z,10.34
2022-11-16T01:21:31.224Z,10.29
2022-11-16T01:23:59.540Z,10.25
2022-11-16T01:26:27.921Z,10.20
2022-11-16T01:28:56.301Z,10.19
2022-11-16T01:31:25.246Z,10.17
2022-11-16T01:33:54.917Z,10.15
2022-11-16T01:36:27.024Z,10.12
2022-11-16T01:38:58.737Z,10.08
2022-11-16T01:41:31.161Z,10.04
2022-11-16T01:44:05.519Z,10.04
2022-11-16T01:46:39.690Z,10.04
2022-11-16T01:49:15.973Z,10.02
2022-11-16T01:51:49.394Z,9.99
2022-11-16T01:54:19.157Z,9.96
2022-11-16T01:56:57.760Z,9.93
2022-11-16T01:59:34.226Z,9.96
2022-11-16T02:02:03.916Z,9.97
2022-11-16T02:04:32.923Z,9.95
2022-11-16T02:07:09.656Z,9.94
2022-11-16T02:09:58.980Z,9.90
2022-11-16T02:13:04.961Z,9.88
2022-11-16T02:15:46.205Z,9.83
2022-11-16T02:18:51.399Z,9.82
2022-11-16T02:21:42.628Z,9.82
2022-11-16T02:24:43.743Z,9.76
2022-11-16T02:28:07.131Z,9.70
2022-11-16T02:30:40.012Z,9.66
2022-11-16T02:33:13.286Z,9.64
2022-11-16T02:35:47.200Z,9.60
2022-11-16T02:38:21.454Z,9.58
2022-11-16T02:40:55.792Z,9.58
2022-11-16T02:43:33.423Z,9.59
2022-11-16T02:46:09.316Z,9.61
2022-11-16T02:48:42.095Z,9.57
2022-11-16T02:51:11.310Z,9.53
2022-11-16T02:53:47.447Z,9.52
2022-11-16T02:56:16.700Z,9.53
2022-11-16T02:58:45.263Z,9.49
2022-11-16T03:01:19.916Z,9.49
2022-11-16T03:03:54.969Z,9.51
2022-11-16T03:06:29.837Z,9.46
2022-11-16T03:09:02.298Z,9.41
2022-11-16T03:11:51.235Z,9.45
2022-11-16T03:14:23.890Z,9.40
2022-11-16T03:16:57.639Z,9.45
2022-11-16T03:19:35.226Z,9.40
2022-11-16T03:22:10.152Z,9.42
2022-11-16T03:24:40.582Z,9.38
2022-11-16T03:27:21.113Z,9.39
2022-11-16T03:30:01.961Z,9.38
2022-11-16T03:32:37.954Z,9.39
2022-11-16T03:35:16.401Z,9.42
2022-11-16T03:37:49.340Z,9.48
2022-11-16T03:40:19.621Z,9.52
2022-11-16T03:42:51.107Z,9.53
2022-11-16T03:45:20.875Z,9.52
2022-11-16T03:47:52.384Z,9.54
2022-11-16T03:50:21.911Z,9.57
2022-11-16T03:52:50.289Z,9.58
2022-11-16T03:55:19.677Z,9.65
2022-11-16T03:57:48.169Z,9.63
2022-11-16T04:00:17.072Z,9.66
2022-11-16T04:02:46.033Z,9.65
2022-11-16T04:05:40.501Z,9.69
2022-11-16T04:08:35.854Z,9.70
2022-11-16T04:11:22.695Z,9.77
2022-11-16T04:14:10.227Z,9.69
2022-11-16T04:16:58.998Z,9.65
2022-11-16T04:19:45.791Z,9.60
2022-11-16T04:22:38.911Z,9.57
2022-11-16T04:25:11.997Z,9.55
2022-11-16T04:27:57.643Z,9.56
2022-11-16T04:30:26.133Z,9.48
2022-11-16T04:33:12.194Z,9.48
2022-11-16T04:35:58.275Z,9.46
2022-11-16T04:38:27.856Z,9.45
2022-11-16T04:40:56.242Z,9.47
2022-11-16T04:43:24.252Z,9.50
2022-11-16T04:46:10.257Z,9.54
2022-11-16T04:48:41.249Z,9.58
2022-11-16T04:51:11.083Z,9.59
2022-11-16T04:53:41.643Z,9.60
2022-11-16T04:56:18.003Z,9.60
2022-11-16T04:58:46.808Z,9.62
2022-11-16T05:01:15.697Z,9.65
2022-11-16T05:03:45.243Z,9.63
2022-11-16T05:06:13.749Z,9.64
2022-11-16T05:08:43.532Z,9.67
2022-11-16T05:11:12.362Z,9.68
2022-11-16T05:13:41.089Z,9.67
2022-11-16T05:16:09.982Z,9.71
2022-11-16T05:18:38.726Z,9.68
2022-11-16T05:21:06.894Z,9.67
2022-11-16T05:23:56.458Z,9.69
2022-11-16T05:26:29.075Z,9.70
2022-11-16T05:28:57.748Z,9.71
2022-11-16T05:31:26.030Z,9.72
2022-11-16T05:33:54.467Z,9.74
2022-11-16T05:36:22.841Z,9.75
2022-11-16T05:38:56.123Z,9.75
2022-11-16T05:41:28.677Z,9.78
2022-11-16T05:43:58.010Z,9.77
2022-11-16T05:46:26.729Z,9.78
2022-11-16T05:48:57.706Z,9.76
2022-11-16T05:51:26.809Z,9.76
2022-11-16T05:53:56.256Z,9.75
2022-11-16T05:56:25.364Z,9.76
2022-11-16T05:58:57.108Z,9.74
2022-11-16T06:01:26.549Z,9.73
2022-11-16T06:03:55.516Z,9.73
2022-11-16T06:06:23.851Z,9.72
2022-11-16T06:08:53.567Z,9.73
2022-11-16T06:11:29.069Z,9.73
2022-11-16T06:14:04.095Z,9.73
2022-11-16T06:16:33.041Z,9.75
2022-11-16T06:19:04.335Z,9.73
2022-11-16T06:21:32.971Z,9.75
2022-11-16T06:24:05.779Z,9.76
2022-11-16T06:26:34.316Z,9.76
2022-11-16T06:29:04.730Z,9.76
2022-11-16T06:31:34.446Z,9.80
2022-11-16T06:34:04.369Z,9.80
2022-11-16T06:36:32.653Z,9.75
2022-11-16T06:39:01.939Z,9.76
2022-11-16T06:41:36.590Z,9.71
2022-11-16T06:44:11.394Z,9.72
2022-11-16T06:46:44.561Z,9.69
2022-11-16T06:49:13.572Z,9.70
2022-11-16T06:51:41.886Z,9.71
2022-11-16T06:54:10.811Z,9.69
2022-11-16T06:56:39.501Z,9.71
2022-11-16T06:59:10.334Z,9.68
2022-11-16T07:01:38.817Z,9.68
2022-11-16T07:04:12.718Z,9.67
2022-11-16T07:06:44.772Z,9.69
2022-11-16T07:09:16.309Z,9.68
2022-11-16T07:11:45.365Z,9.68
2022-11-16T07:14:17.555Z,9.65
2022-11-16T07:16:46.118Z,9.67
2022-11-16T07:19:14.851Z,9.66
2022-11-16T07:21:44.778Z,9.68
2022-11-16T07:24:17.149Z,9.69
2022-11-16T07:26:45.555Z,9.69
2022-11-16T07:29:21.542Z,9.73
2022-11-16T07:32:09.388Z,9.74
2022-11-16T07:34:59.196Z,9.75
2022-11-16T07:37:28.313Z,9.82
2022-11-16T07:39:56.743Z,9.83
2022-11-16T07:42:26.188Z,9.85
2022-11-16T07:45:31.352Z,9.86
2022-11-16T07:48:06.922Z,9.88
2022-11-16T07:50:54.057Z,9.91
2022-11-16T07:53:24.262Z,9.92
2022-11-16T07:55:54.408Z,9.96
2022-11-16T07:58:24.415Z,9.97
2022-11-16T08:00:54.523Z,9.96
2022-11-16T08:03:24.830Z,9.99
2022-11-16T08:06:00.877Z,10.01
2022-11-16T08:08:31.212Z,9.99
2022-11-16T08:11:05.509Z,9.98
2022-11-16T08:13:36.983Z,9.96
2022-11-16T08:16:10.411Z,9.95
2022-11-16T08:18:42.049Z,9.95
2022-11-16T08:21:21.161Z,9.96
2022-11-16T08:24:08.201Z,9.96
2022-11-16T08:26:54.001Z,10.00
2022-11-16T08:29:32.398Z,10.02
2022-11-16T08:32:20.506Z,10.02
2022-11-16T08:34:56.206Z,10.06
2022-11-16T08:37:37.400Z,10.08
2022-11-16T08:40:25.936Z,10.16
2022-11-16T08:43:20.750Z,10.17
2022-11-16T08:46:13.568Z,10.22
2022-11-16T08:48:50.673Z,10.19
2022-11-16T08:51:32.006Z,10.20
2022-11-16T08:54:16.933Z,10.20
2022-11-16T08:56:49.833Z,10.21
2022-11-16T08:59:37.957Z,10.25
2022-11-16T09:02:16.832Z,10.27
2022-11-16T09:04:59.727Z,10.28
2022-11-16T09:07:40.106Z,10.33
2022-11-16T09:10:38.398Z,10.33
2022-11-16T09:13:18.848Z,10.34
2022-11-16T09:16:16.444Z,10.33
2022-11-16T09:18:56.574Z,10.33
2022-11-16T09:21:44.209Z,10.32
2022-11-16T09:24:22.148Z,10.34
2022-11-16T09:27:11.627Z,10.42
2022-11-16T09:29:52.199Z,10.44
2022-11-16T09:32:21.118Z,10.48
2022-11-16T09:34:49.570Z,10.53
2022-11-16T09:37:19.299Z,10.58
2022-11-16T09:39:47.535Z,10.58
2022-11-16T09:42:34.692Z,10.67
2022-11-16T09:45:08.419Z,10.72
2022-11-16T09:47:50.143Z,10.70
2022-11-16T09:50:31.287Z,10.77
2022-11-16T09:53:10.939Z,10.82
2022-11-16T09:55:46.627Z,10.83
2022-11-16T09:58:19.304Z,10.83
2022-11-16T10:00:56.061Z,10.84
2022-11-16T10:03:27.308Z,10.84
2022-11-16T10:06:03.865Z,10.90
2022-11-16T10:08:46.974Z,10.92
2022-11-16T10:11:39.924Z,10.94
2022-11-16T10:14:33.769Z,11.02
2022-11-16T10:17:07.820Z,10.98
2022-11-16T10:19:46.721Z,11.02
2022-11-16T10:22:34.202Z,11.07
2022-11-16T10:25:11.822Z,11.13
2022-11-16T10:28:08.625Z,11.10
2022-11-16T10:30:44.476Z,11.16
2022-11-16T10:33:18.289Z,11.19
2022-11-16T10:35:52.111Z,11.22
2022-11-16T10:38:26.633Z,11.29
2022-11-16T10:41:04.622Z,11.34
2022-11-16T10:43:34.623Z,11.39
2022-11-16T10:46:13.662Z,11.43
2022-11-16T10:48:54.994Z,11.45
2022-11-16T10:51:23.331Z,11.54
2022-11-16T10:53:53.183Z,11.65
2022-11-16T10:56:27.114Z,11.84
2022-11-16T10:58:59.332Z,11.93
2022-11-16T11:01:35.940Z,12.02
2022-11-16T11:04:20.955Z,12.09
2022-11-16T11:06:52.625Z,12.20
2022-11-16T11:09:30.468Z,12.17
2022-11-16T11:12:34.036Z,12.16
2022-11-16T11:15:13.365Z,12.15
2022-11-16T11:17:44.641Z,12.10
2022-11-16T11:20:24.299Z,12.08
2022-11-16T11:22:56.050Z,12.06
2022-11-16T11:25:27.187Z,12.07
2022-11-16T11:28:07.726Z,12.07
2022-11-16T11:30:37.107Z,12.06
2022-11-16T11:33:12.815Z,12.04
2022-11-16T11:35:41.642Z,12.04
2022-11-16T11:38:16.561Z,12.07
2022-11-16T11:40:58.930Z,12.09
2022-11-16T11:43:30.238Z,12.14
2022-11-16T11:46:07.169Z,12.13
2022-11-16T11:48:47.916Z,12.11
2022-11-16T11:51:23.467Z,12.11
2022-11-16T11:53:57.008Z,12.15
2022-11-16T11:56:26.284Z,12.13
2022-11-16T11:58:56.935Z,12.15
2022-11-16T12:01:55.846Z,12.15
2022-11-16T12:05:25.304Z,12.14
2022-11-16T12:08:21.641Z,12.12
2022-11-16T12:10:54.149Z,12.15
2022-11-16T12:13:48.379Z,12.15
2022-11-16T12:16:23.586Z,12.20
2022-11-16T12:19:27.221Z,12.23
2022-11-16T12:22:10.539Z,12.25
2022-11-16T12:24:54.522Z,12.27
2022-11-16T12:27:35.451Z,12.30
2022-11-16T12:30:12.718Z,12.36
2022-11-16T12:33:06.984Z,12.37
2022-11-16T12:35:50.339Z,12.36
2022-11-16T12:38:43.098Z,12.38
2022-11-16T12:41:58.295Z,12.39
2022-11-16T12:44:46.901Z,12.43
2022-11-16T12:47:29.917Z,12.49
2022-11-16T12:50:21.658Z,12.51
2022-11-16T12:53:20.405Z,12.52
2022-11-16T12:55:58.718Z,12.55
2022-11-16T12:58:57.131Z,12.59
2022-11-16T13:01:34.292Z,12.61
2022-11-16T13:04:11.507Z,12.71
2022-11-16T13:06:48.678Z,12.67
2022-11-16T13:09:21.627Z,12.73
2022-11-16T13:11:54.199Z,12.76
2022-11-16T13:14:26.904Z,12.77
2022-11-16T13:16:55.789Z,12.82
2022-11-16T13:19:24.906Z,12.84
2022-11-16T13:22:03.252Z,12.95
2022-11-16T13:24:46.823Z,12.96
2022-11-16T13:27:37.504Z,13.05
2022-11-16T13:30:16.219Z,13.17
2022-11-16T13:33:14.249Z,13.42
2022-11-16T13:35:42.793Z,13.50
2022-11-16T13:38:13.831Z,13.49
2022-11-16T13:40:42.795Z,13.48
2022-11-16T13:43:21.054Z,13.69
2022-11-16T13:45:57.779Z,13.87
2022-11-16T13:48:33.649Z,13.87
2022-11-16T13:51:04.964Z,13.80
2022-11-16T13:54:37.845Z,13.69
2022-11-16T13:56:29.516Z,13.62
2022-11-16T13:58:59.485Z,13.51
2022-11-16T14:01:56.614Z,13.43
2022-11-16T14:04:56.287Z,13.33
2022-11-16T14:07:43.332Z,13.32
2022-11-16T14:10:52.408Z,13.39
2022-11-16T14:13:40.094Z,13.40
2022-11-16T14:16:48.408Z,13.52
2022-11-16T14:19:56.004Z,13.99
2022-11-16T14:22:47.625Z,14.40
2022-11-16T14:25:44.057Z,14.77
2022-11-16T14:28:38.932Z,15.11
2022-11-16T14:31:19.137Z,15.34
2022-11-16T14:33:55.848Z,15.48
2022-11-16T14:36:42.973Z,15.44
2022-11-16T14:39:37.323Z,15.45
2022-11-16T14:42:18.073Z,15.54
2022-11-16T14:44:47.920Z,15.66
2022-11-16T14:47:25.453Z,15.81
2022-11-16T14:49:55.701Z,15.67
2022-11-16T14:52:36.874Z,15.52
2022-11-16T14:55:09.768Z,15.53
2022-11-16T14:57:39.695Z,15.52
2022-11-16T15:00:13.745Z,15.46
2022-11-16T15:02:46.906Z,15.38
2022-11-16T15:05:22.533Z,15.28
2022-11-16T15:07:54.514Z,15.22
2022-11-16T15:10:27.464Z,15.10
2022-11-16T15:12:59.002Z,15.03
2022-11-16T15:15:32.559Z,14.86
2022-11-16T15:18:12.280Z,14.69
2022-11-16T15:20:51.140Z,14.45
2022-11-16T15:23:23.876Z,14.27
2022-11-16T15:25:59.285Z,14.23
2022-11-16T15:28:32.835Z,14.21
2022-11-16T15:31:07.487Z,14.14
2022-11-16T15:33:40.663Z,14.11
2022-11-16T15:36:26.056Z,14.01
2022-11-16T15:38:56.570Z,13.93
2022-11-16T15:41:27.924Z,13.84
2022-11-16T15:44:16.852Z,13.82
2022-11-16T15:46:49.903Z,13.78
2022-11-16T15:49:30.150Z,13.73
2022-11-16T15:52:00.196Z,13.68
2022-11-16T15:54:54.467Z,13.66
2022-11-16T15:57:25.282Z,13.63
2022-11-16T15:59:57.828Z,13.56
2022-11-16T16:02:29.347Z,13.49
2022-11-16T16:05:08.588Z,13.40
2022-11-16T16:07:38.565Z,13.29
2022-11-16T16:10:23.860Z,13.26
2022-11-16T16:12:53.907Z,13.18
2022-11-16T16:15:27.296Z,13.19
2022-11-16T16:17:56.141Z,13.14
2022-11-16T16:20:27.231Z,13.07
2022-11-16T16:23:06.890Z,12.95
2022-11-16T16:25:37.037Z,12.87
2022-11-16T16:28:06.208Z,12.76
2022-11-16T16:30:36.021Z,12.67
2022-11-16T16:33:04.686Z,12.62
2022-11-16T16:35:33.054Z,12.53
2022-11-16T16:38:02.484Z,12.51
2022-11-16T16:40:31.230Z,12.45
2022-11-16T16:42:59.510Z,12.40
2022-11-16T16:45:37.253Z,12.41
2022-11-16T16:48:06.772Z,12.37
2022-11-16T16:50:35.158Z,12.33
2022-11-16T16:53:03.509Z,12.32
2022-11-16T16:55:36.949Z,12.31
2022-11-16T16:58:06.419Z,12.20
2022-11-16T17:00:36.308Z,12.13
2022-11-16T17:03:05.004Z,12.05
2022-11-16T17:05:34.132Z,12.01
2022-11-16T17:08:02.920Z,11.98
2022-11-16T17:10:31.422Z,11.94
2022-11-16T17:13:02.368Z,11.93
2022-11-16T17:15:30.702Z,11.88
2022-11-16T17:18:00.783Z,11.88
2022-11-16T17:20:29.233Z,11.85
2022-11-16T17:22:58.023Z,11.78
2022-11-16T17:25:26.454Z,11.77
2022-11-16T17:27:54.710Z,11.73
2022-11-16T17:30:23.022Z,11.67
2022-11-16T17:32:51.466Z,11.62
2022-11-16T17:35:21.170Z,11.61
2022-11-16T17:37:49.857Z,11.59
2022-11-16T17:40:18.343Z,11.60
2022-11-16T17:42:46.616Z,11.57
2022-11-16T17:45:15.327Z,11.56
2022-11-16T17:47:44.004Z,11.52
2022-11-16T17:50:12.436Z,11.50
2022-11-16T17:52:42.116Z,11.50
2022-11-16T17:55:10.767Z,11.49
2022-11-16T17:57:39.021Z,11.43
2022-11-16T18:00:09.490Z,11.40
2022-11-16T18:02:38.050Z,11.35
2022-11-16T18:05:07.240Z,11.29
2022-11-16T18:07:36.489Z,11.25
2022-11-16T18:10:08.087Z,11.17
2022-11-16T18:12:38.451Z,11.14
2022-11-16T18:15:27.596Z,11.08
2022-11-16T18:17:57.285Z,11.05
2022-11-16T18:20:27.588Z,11.04
2022-11-16T18:22:56.299Z,11.08
2022-11-16T18:25:26.380Z,11.08
2022-11-16T18:27:55.358Z,11.10
2022-11-16T18:30:25.080Z,11.12
2022-11-16T18:32:53.559Z,11.08
2022-11-16T18:35:21.971Z,11.08
2022-11-16T18:37:50.462Z,11.07
2022-11-16T18:40:19.097Z,11.04
2022-11-16T18:42:48.819Z,11.03
2022-11-16T18:45:17.275Z,10.99
2022-11-16T18:47:45.985Z,10.94
2022-11-16T18:50:20.097Z,10.87
2022-11-16T18:52:51.039Z,10.83
2022-11-16T18:55:19.566Z,10.80
2022-11-16T18:57:49.405Z,10.79
2022-11-16T19:00:20.353Z,10.77
2022-11-16T19:02:48.692Z,10.77
2022-11-16T19:05:17.269Z,10.69
2022-11-16T19:07:45.935Z,10.63
2022-11-16T19:10:14.787Z,10.65
2022-11-16T19:12:43.421Z,10.61
2022-11-16T19:15:13.384Z,10.56
2022-11-16T19:18:06.354Z,10.47
2022-11-16T19:20:30.235Z,10.42
2022-11-16T19:22:59.114Z,10.34
2022-11-16T19:25:28.025Z,10.32
2022-11-16T19:27:56.503Z,10.21
2022-11-16T19:30:26.348Z,10.13
2022-11-16T19:32:57.974Z,10.08
2022-11-16T19:35:26.540Z,10.10
2022-11-16T19:37:54.913Z,10.08
2022-11-16T19:40:25.187Z,10.10
2022-11-16T19:42:54.622Z,10.07
2022-11-16T19:45:23.034Z,9.97
2022-11-16T19:47:52.993Z,9.90
2022-11-16T19:50:23.622Z,9.83
2022-11-16T19:52:51.983Z,9.76
2022-11-16T19:55:20.539Z,9.66
2022-11-16T19:57:48.937Z,9.60
2022-11-16T20:00:18.594Z,9.58
2022-11-16T20:02:46.936Z,9.47
2022-11-16T20:05:16.748Z,9.41
2022-11-16T20:07:45.041Z,9.23
2022-11-16T20:10:13.493Z,9.21
2022-11-16T20:12:42.032Z,9.12
2022-11-16T20:15:11.252Z,9.07
2022-11-16T20:17:39.792Z,9.01
2022-11-16T20:20:09.579Z,9.00
2022-11-16T20:22:39.438Z,9.06
2022-11-16T20:25:08.859Z,9.04
2022-11-16T20:27:37.466Z,9.03
2022-11-16T20:30:09.772Z,9.09
2022-11-16T20:32:38.331Z,9.09
2022-11-16T20:35:07.199Z,9.05
2022-11-16T20:37:36.608Z,9.02
2022-11-16T20:40:08.276Z,9.01
2022-11-16T20:42:37.060Z,9.04
2022-11-16T20:45:06.802Z,9.07
2022-11-16T20:47:35.165Z,9.01
2022-11-16T20:50:04.152Z,8.97
2022-11-16T20:52:32.437Z,8.86
2022-11-16T20:55:00.675Z,8.79
2022-11-16T20:57:30.601Z,8.73
2022-11-16T20:59:58.904Z,8.68
2022-11-16T21:02:27.793Z,8.62
2022-11-16T21:05:00.042Z,8.58
2022-11-16T21:07:29.766Z,8.53
2022-11-16T21:10:15.834Z,8.52
2022-11-16T21:13:02.903Z,8.46
2022-11-16T21:15:31.287Z,8.39
2022-11-16T21:17:59.767Z,8.40
2022-11-16T21:20:28.712Z,8.39
2022-11-16T21:22:57.459Z,8.42
2022-11-16T21:25:25.822Z,8.43
2022-11-16T21:27:56.952Z,8.39
2022-11-16T21:30:25.391Z,8.41
2022-11-16T21:32:53.700Z,8.43
2022-11-16T21:35:23.460Z,8.37
2022-11-16T21:38:02.870Z,8.35
2022-11-16T21:40:31.133Z,8.34
2022-11-16T21:43:00.924Z,8.38
2022-11-16T21:45:29.577Z,8.41
2022-11-16T21:47:58.237Z,8.40
2022-11-16T21:50:33.727Z,8.39
2022-11-16T21:53:02.143Z,8.37
2022-11-16T21:55:30.682Z,8.36
2022-11-16T21:58:00.685Z,8.36
2022-11-16T22:00:29.408Z,8.32
2022-11-16T22:02:57.709Z,8.28
2022-11-16T22:05:43.782Z,8.26
2022-11-16T22:08:12.771Z,8.22
2022-11-16T22:10:41.232Z,8.24
2022-11-16T22:13:11.002Z,8.17
2022-11-16T22:15:39.284Z,8.16
2022-11-16T22:18:07.680Z,8.11
2022-11-16T22:20:36.060Z,8.11
2022-11-16T22:23:04.888Z,8.02
2022-11-16T22:25:33.312Z,8.02
2022-11-16T22:30:52.183Z,7.96
2022-11-16T22:33:21.329Z,7.98
2022-11-16T22:35:49.714Z,7.99
2022-11-16T22:38:17.940Z,8.03
2022-11-16T22:40:51.569Z,8.07
2022-11-16T22:43:20.177Z,8.08
2022-11-16T22:45:48.953Z,8.11
2022-11-16T22:48:18.945Z,8.15
2022-11-16T22:50:47.359Z,8.14
2022-11-16T22:53:15.979Z,8.17
2022-11-16T22:55:44.677Z,8.20
2022-11-16T22:58:13.118Z,8.24
2022-11-16T23:00:42.283Z,8.24
2022-11-16T23:03:10.975Z,8.25
2022-11-16T23:05:40.635Z,8.26
2022-11-16T23:08:09.041Z,8.27
2022-11-16T23:10:57.472Z,8.26
2022-11-16T23:13:42.473Z,8.26
2022-11-16T23:16:10.727Z,8.25
2022-11-16T23:18:39.023Z,8.24
2022-11-16T23:21:27.270Z,8.24
2022-11-16T23:24:13.343Z,8.23
2022-11-16T23:26:59.525Z,8.24
2022-11-16T23:29:27.858Z,8.21
2022-11-16T23:31:56.157Z,8.18
2022-11-16T23:34:24.443Z,8.19
2022-11-16T23:36:54.037Z,8.16
2022-11-16T23:39:22.316Z,8.16
2022-11-16T23:42:07.996Z,8.19
2022-11-16T23:44:36.304Z,8.21
2022-11-16T23:47:04.836Z,8.21
2022-11-16T23:49:33.118Z,8.22
2022-11-16T23:52:02.710Z,8.21
2022-11-16T23:54:30.990Z,8.19
2022-11-16T23:56:59.562Z,8.21
2022-11-16T23:59:27.908Z,8.17
